Time,TemperatureF,DewpointF,PressureIn,WindDirection,WindDirectionDegrees,WindSpeedMPH,WindSpeedGustMPH,Humidity,HourlyPrecipIn,Conditions,Clouds,dailyrainin,SoftwareType,DateUTC
2013-05-09 00:11:00,52.8,51.0,29.90,SSE,150,0.0,1.0,94,0.00,,,0.00,weatherlink.com 1.10,2013-05-09 04:11:00,
2013-05-09 00:26:00,52.6,51.0,29.89,SSE,150,0.0,0.0,94,0.00,,,0.00,weatherlink.com 1.10,2013-05-09 04:26:00,
2013-05-09 00:41:00,52.5,51.0,29.89,SSE,150,0.0,0.0,95,0.00,,,0.00,weatherlink.com 1.10,2013-05-09 04:41:00,
2013-05-09 00:56:00,52.6,51.0,29.89,SSE,150,0.0,0.0,95,0.00,,,0.00,weatherlink.com 1.10,2013-05-09 04:56:00,
2013-05-09 01:11:00,52.8,52.0,29.89,West,275,0.0,0.0,96,0.00,,,0.00,weatherlink.com 1.10,2013-05-09 05:11:00,
2013-05-09 01:26:00,52.8,52.0,29.88,West,279,0.0,1.0,95,0.00,,,0.00,weatherlink.com 1.10,2013-05-09 05:26:00,
2013-05-09 01:41:00,52.4,51.0,29.88,West,279,0.0,0.0,94,0.00,,,0.00,weatherlink.com 1.10,2013-05-09 05:41:00,
2013-05-09 01:56:00,51.9,50.0,29.87,West,279,0.0,0.0,94,0.00,,,0.00,weatherlink.com 1.10,2013-05-09 05:56:00,
2013-05-09 02:11:00,51.5,50.0,29.87,West,279,0.0,0.0,95,0.00,,,0.00,weatherlink.com 1.10,2013-05-09 06:11:00,
2013-05-09 02:26:00,51.1,50.0,29.86,WNW,290,0.0,2.0,95,0.00,,,0.00,weatherlink.com 1.10,2013-05-09 06:26:00,
2013-05-09 02:41:00,51.0,50.0,29.86,WNW,290,0.0,1.0,96,0.00,,,0.00,weatherlink.com 1.10,2013-05-09 06:41:00,
2013-05-09 02:56:00,50.9,50.0,29.85,WNW,290,0.0,0.0,96,0.00,,,0.00,weatherlink.com 1.10,2013-05-09 06:56:00,
2013-05-09 03:11:00,51.2,50.0,29.85,SW,219,0.0,1.0,97,0.00,,,0.00,weatherlink.com 1.10,2013-05-09 07:11:00,
2013-05-09 03:26:00,51.3,51.0,29.86,SW,219,0.0,0.0,97,0.00,,,0.00,weatherlink.com 1.10,2013-05-09 07:26:00,
2013-05-09 03:41:00,51.6,51.0,29.85,SW,217,0.0,0.0,97,0.00,,,0.00,weatherlink.com 1.10,2013-05-09 07:41:00,
2013-05-09 03:56:00,51.7,51.0,29.85,SW,217,0.0,1.0,97,0.00,,,0.00,weatherlink.com 1.10,2013-05-09 07:56:00,
2013-05-09 04:11:00,51.6,51.0,29.84,West,271,0.0,1.0,96,0.00,,,0.00,weatherlink.com 1.10,2013-05-09 08:11:00,
2013-05-09 04:26:00,51.6,51.0,29.85,West,271,0.0,0.0,96,0.00,,,0.00,weatherlink.com 1.10,2013-05-09 08:26:00,
2013-05-09 04:41:00,51.4,50.0,29.85,West,271,0.0,0.0,96,0.00,,,0.00,weatherlink.com 1.10,2013-05-09 08:41:00,
2013-05-09 04:56:00,51.3,50.0,29.85,West,271,0.0,0.0,96,0.00,,,0.00,weatherlink.com 1.10,2013-05-09 08:56:00,
2013-05-09 05:12:00,51.0,50.0,29.85,West,271,0.0,1.0,96,0.00,,,0.00,weatherlink.com 1.10,2013-05-09 09:12:00,
2013-05-09 05:26:00,50.8,50.0,29.85,WSW,251,0.0,1.0,96,0.00,,,0.00,weatherlink.com 1.10,2013-05-09 09:26:00,
2013-05-09 05:41:00,50.7,50.0,29.86,WSW,251,0.0,0.0,97,0.00,,,0.00,weatherlink.com 1.10,2013-05-09 09:41:00,
2013-05-09 05:56:00,50.7,50.0,29.86,WSW,251,0.0,1.0,97,0.00,,,0.00,weatherlink.com 1.10,2013-05-09 09:56:00,
2013-05-09 06:11:00,50.7,50.0,29.86,WSW,251,0.0,0.0,97,0.00,,,0.00,weatherlink.com 1.10,2013-05-09 10:11:00,
2013-05-09 06:26:00,50.7,50.0,29.87,WSW,251,0.0,0.0,97,0.00,,,0.00,weatherlink.com 1.10,2013-05-09 10:26:00,
2013-05-09 06:41:00,50.9,50.0,29.88,WSW,251,0.0,0.0,97,0.00,,,0.00,weatherlink.com 1.10,2013-05-09 10:41:00,
2013-05-09 06:56:00,51.2,50.0,29.88,WSW,251,0.0,0.0,97,0.00,,,0.00,weatherlink.com 1.10,2013-05-09 10:56:00,
2013-05-09 07:11:00,51.5,51.0,29.88,WSW,251,0.0,1.0,97,0.00,,,0.00,weatherlink.com 1.10,2013-05-09 11:11:00,
2013-05-09 07:26:00,51.8,51.0,29.89,WSW,251,0.0,0.0,97,0.00,,,0.00,weatherlink.com 1.10,2013-05-09 11:26:00,
2013-05-09 07:41:00,52.4,51.0,29.89,WSW,245,0.0,1.0,96,0.00,,,0.00,weatherlink.com 1.10,2013-05-09 11:41:00,
2013-05-09 07:56:00,52.9,52.0,29.90,WSW,245,0.0,1.0,95,0.00,,,0.00,weatherlink.com 1.10,2013-05-09 11:56:00,
2013-05-09 08:11:00,53.5,52.0,29.90,SW,236,0.0,1.0,94,0.00,,,0.00,weatherlink.com 1.10,2013-05-09 12:11:00,
2013-05-09 08:26:00,54.0,52.0,29.90,West,281,0.0,1.0,92,0.00,,,0.00,weatherlink.com 1.10,2013-05-09 12:26:00,
2013-05-09 08:41:00,54.6,52.0,29.91,West,281,0.0,0.0,92,0.00,,,0.00,weatherlink.com 1.10,2013-05-09 12:41:00,
2013-05-09 08:56:00,55.3,53.0,29.91,West,281,0.0,1.0,92,0.00,,,0.00,weatherlink.com 1.10,2013-05-09 12:56:00,
2013-05-09 09:11:00,56.2,54.0,29.91,West,269,0.0,2.0,91,0.00,,,0.00,weatherlink.com 1.10,2013-05-09 13:11:00,
2013-05-09 09:27:00,56.9,54.0,29.92,SW,232,0.0,2.0,90,0.00,,,0.00,weatherlink.com 1.10,2013-05-09 13:27:00,
2013-05-09 09:42:00,59.2,55.0,29.91,SE,130,1.0,3.0,86,0.00,,,0.00,weatherlink.com 1.10,2013-05-09 13:42:00,
2013-05-09 09:57:00,60.1,56.0,29.92,NW,324,0.0,2.0,85,0.00,,,0.00,weatherlink.com 1.10,2013-05-09 13:57:00,
2013-05-09 10:12:00,61.4,57.0,29.92,NW,317,1.0,3.0,84,0.00,,,0.00,weatherlink.com 1.10,2013-05-09 14:12:00,
2013-05-09 10:27:00,63.3,58.0,29.91,West,271,0.0,3.0,82,0.00,,,0.00,weatherlink.com 1.10,2013-05-09 14:27:00,
2013-05-09 10:42:00,65.8,58.0,29.91,NW,311,3.0,7.0,76,0.00,,,0.00,weatherlink.com 1.10,2013-05-09 14:42:00,
2013-05-09 10:57:00,67.9,59.0,29.90,NW,311,2.0,6.0,72,0.00,,,0.00,weatherlink.com 1.10,2013-05-09 14:57:00,
2013-05-09 11:12:00,69.1,60.0,29.90,NE,35,0.0,7.0,72,0.00,,,0.00,weatherlink.com 1.10,2013-05-09 15:12:00,
2013-05-09 11:27:00,69.8,59.0,29.90,NNW,330,1.0,9.0,69,0.00,,,0.00,weatherlink.com 1.10,2013-05-09 15:27:00,
2013-05-09 11:42:00,70.4,60.0,29.90,NW,311,3.0,7.0,69,0.00,,,0.00,weatherlink.com 1.10,2013-05-09 15:42:00,
2013-05-09 11:57:00,72.1,61.0,29.89,NW,321,0.0,6.0,67,0.00,,,0.00,weatherlink.com 1.10,2013-05-09 15:57:00,
2013-05-09 12:12:00,72.6,59.0,29.89,NW,306,2.0,9.0,62,0.00,,,0.00,weatherlink.com 1.10,2013-05-09 16:12:00,
2013-05-09 12:27:00,72.1,59.0,29.89,WNW,300,1.0,4.0,63,0.00,,,0.00,weatherlink.com 1.10,2013-05-09 16:27:00,
2013-05-09 12:42:00,73.3,58.0,29.89,West,263,0.0,8.0,60,0.00,,,0.00,weatherlink.com 1.10,2013-05-09 16:42:00,
2013-05-09 12:57:00,72.2,56.0,29.89,WNW,298,3.0,11.0,58,0.00,,,0.00,weatherlink.com 1.10,2013-05-09 16:57:00,
2013-05-09 13:12:00,72.9,59.0,29.88,WNW,285,6.0,7.0,61,0.00,,,0.00,weatherlink.com 1.10,2013-05-09 17:12:00,
2013-05-09 13:27:00,73.3,57.0,29.88,WNW,298,1.0,7.0,58,0.00,,,0.00,weatherlink.com 1.10,2013-05-09 17:27:00,
2013-05-09 13:42:00,73.4,57.0,29.88,WNW,297,4.0,10.0,56,0.00,,,0.00,weatherlink.com 1.10,2013-05-09 17:42:00,
2013-05-09 13:57:00,73.5,58.0,29.88,WSW,258,1.0,8.0,58,0.00,,,0.00,weatherlink.com 1.10,2013-05-09 17:57:00,
2013-05-09 14:12:00,74.7,58.0,29.88,NW,307,4.0,7.0,56,0.00,,,0.00,weatherlink.com 1.10,2013-05-09 18:12:00,
2013-05-09 14:27:00,73.5,57.0,29.88,WNW,290,1.0,7.0,56,0.00,,,0.00,weatherlink.com 1.10,2013-05-09 18:27:00,
2013-05-09 14:42:00,71.2,58.0,29.88,ESE,116,0.0,7.0,63,0.00,,,0.00,weatherlink.com 1.10,2013-05-09 18:42:00,
2013-05-09 14:57:00,69.3,59.0,29.88,ENE,70,0.0,3.0,69,0.00,,,0.00,weatherlink.com 1.10,2013-05-09 18:57:00,
2013-05-09 15:13:00,70.1,59.0,29.87,East,101,0.0,2.0,68,0.00,,,0.00,weatherlink.com 1.10,2013-05-09 19:13:00,
2013-05-09 15:29:00,70.8,59.0,29.87,NNE,16,0.0,2.0,66,0.00,,,0.00,weatherlink.com 1.10,2013-05-09 19:29:00,
2013-05-09 15:42:00,71.3,60.0,29.87,ESE,105,1.0,3.0,67,0.00,,,0.00,weatherlink.com 1.10,2013-05-09 19:42:00,
2013-05-09 15:57:00,71.9,60.0,29.87,ESE,105,0.0,1.0,66,0.00,,,0.00,weatherlink.com 1.10,2013-05-09 19:57:00,
2013-05-09 16:13:00,72.4,58.0,29.87,WNW,290,3.0,8.0,60,0.00,,,0.00,weatherlink.com 1.10,2013-05-09 20:13:00,
2013-05-09 16:28:00,72.7,58.0,29.86,WNW,290,0.0,4.0,60,0.00,,,0.00,weatherlink.com 1.10,2013-05-09 20:28:00,
2013-05-09 16:43:00,74.0,58.0,29.86,NW,317,0.0,4.0,58,0.00,,,0.00,weatherlink.com 1.10,2013-05-09 20:43:00,
2013-05-09 16:58:00,75.4,57.0,29.86,NW,304,3.0,5.0,53,0.00,,,0.00,weatherlink.com 1.10,2013-05-09 20:58:00,
2013-05-09 17:13:00,75.1,57.0,29.86,NW,305,2.0,3.0,54,0.00,,,0.00,weatherlink.com 1.10,2013-05-09 21:13:00,
2013-05-09 17:28:00,74.2,56.0,29.86,NE,44,0.0,1.0,54,0.00,,,0.00,weatherlink.com 1.10,2013-05-09 21:28:00,
2013-05-09 17:43:00,73.7,59.0,29.86,WNW,294,0.0,3.0,61,0.00,,,0.00,weatherlink.com 1.10,2013-05-09 21:43:00,
2013-05-09 17:58:00,72.1,61.0,29.87,WNW,292,2.0,4.0,69,0.08,,,0.08,weatherlink.com 1.10,2013-05-09 21:58:00,
2013-05-09 18:13:00,67.9,62.0,29.88,NW,312,0.0,3.0,81,0.09,,,0.09,weatherlink.com 1.10,2013-05-09 22:13:00,
2013-05-09 18:28:00,65.9,62.0,29.88,SW,225,0.0,1.0,86,0.09,,,0.09,weatherlink.com 1.10,2013-05-09 22:28:00,
2013-05-09 18:43:00,64.2,60.0,29.90,WNW,300,1.0,9.0,87,0.15,,,0.15,weatherlink.com 1.10,2013-05-09 22:43:00,
2013-05-09 18:58:00,63.4,60.0,29.88,ENE,76,0.0,3.0,89,0.08,,,0.16,weatherlink.com 1.10,2013-05-09 22:58:00,
2013-05-09 19:13:00,63.6,61.0,29.88,North,5,0.0,1.0,92,0.07,,,0.16,weatherlink.com 1.10,2013-05-09 23:13:00,
2013-05-09 19:28:00,63.5,61.0,29.89,North,5,0.0,0.0,92,0.07,,,0.16,weatherlink.com 1.10,2013-05-09 23:28:00,
2013-05-09 19:43:00,63.1,61.0,29.89,North,5,0.0,1.0,93,0.01,,,0.16,weatherlink.com 1.10,2013-05-09 23:43:00,
2013-05-09 19:58:00,62.7,61.0,29.89,North,5,0.0,0.0,93,0.00,,,0.16,weatherlink.com 1.10,2013-05-09 23:58:00,
2013-05-09 20:14:00,62.1,60.0,29.89,North,5,0.0,0.0,93,0.00,,,0.16,weatherlink.com 1.10,2013-05-10 00:14:00,
2013-05-09 20:28:00,61.4,59.0,29.90,North,5,0.0,1.0,93,0.00,,,0.16,weatherlink.com 1.10,2013-05-10 00:28:00,
2013-05-09 20:43:00,60.9,59.0,29.90,North,5,0.0,0.0,94,0.00,,,0.16,weatherlink.com 1.10,2013-05-10 00:43:00,
2013-05-09 20:58:00,60.4,59.0,29.91,North,5,0.0,0.0,94,0.00,,,0.16,weatherlink.com 1.10,2013-05-10 00:58:00,
2013-05-09 21:13:00,59.7,58.0,29.91,North,5,0.0,0.0,94,0.00,,,0.16,weatherlink.com 1.10,2013-05-10 01:13:00,
2013-05-09 21:28:00,59.0,57.0,29.92,North,5,0.0,0.0,94,0.00,,,0.16,weatherlink.com 1.10,2013-05-10 01:28:00,
2013-05-09 21:43:00,58.4,57.0,29.92,North,5,0.0,0.0,95,0.00,,,0.16,weatherlink.com 1.10,2013-05-10 01:43:00,
2013-05-09 21:58:00,57.8,56.0,29.93,North,5,0.0,0.0,94,0.00,,,0.16,weatherlink.com 1.10,2013-05-10 01:58:00,
2013-05-09 22:13:00,57.3,56.0,29.94,North,5,0.0,0.0,95,0.00,,,0.16,weatherlink.com 1.10,2013-05-10 02:13:00,
2013-05-09 22:28:00,56.9,56.0,29.93,North,5,0.0,0.0,95,0.00,,,0.16,weatherlink.com 1.10,2013-05-10 02:28:00,
2013-05-09 22:43:00,56.4,55.0,29.93,North,5,0.0,0.0,96,0.00,,,0.16,weatherlink.com 1.10,2013-05-10 02:43:00,
2013-05-09 22:58:00,56.2,55.0,29.93,North,5,0.0,0.0,96,0.00,,,0.16,weatherlink.com 1.10,2013-05-10 02:58:00,
2013-05-09 23:13:00,55.7,55.0,29.93,North,5,0.0,0.0,96,0.00,,,0.16,weatherlink.com 1.10,2013-05-10 03:13:00,
2013-05-09 23:28:00,55.4,54.0,29.93,North,5,0.0,0.0,96,0.00,,,0.16,weatherlink.com 1.10,2013-05-10 03:28:00,
2013-05-09 23:43:00,55.1,54.0,29.92,North,5,0.0,0.0,96,0.00,,,0.16,weatherlink.com 1.10,2013-05-10 03:43:00,
2013-05-09 23:58:00,54.8,54.0,29.93,North,5,0.0,1.0,96,0.00,,,0.16,weatherlink.com 1.10,2013-05-10 03:58:00,